Time;durP1;ratioP1;P1;durP2;ratioP2;P2;SDS_P1;SDS_P2;PMS_P1;PMS_P2;Temp;Humidity;BMP_temperature;BMP_pressure;BME280_temperature;BME280_humidity;BME280_pressure;Samples;Min_cycle;Max_cycle;Signal;HPM_P1;HPM_P2
2023/07/17 00:01:31;;;;;;;69.40;4.27;;;21.30;1.00;;;;;;5095079;28;20201;-79
2023/07/17 00:03:57;;;;;;;68.53;4.20;;;21.30;1.00;;;;;;5095214;28;20187;-79
2023/07/17 00:06:23;;;;;;;73.27;4.87;;;21.30;1.00;;;;;;5095364;28;20164;-79
2023/07/17 00:08:48;;;;;;;74.03;4.10;;;21.30;1.00;;;;;;5096043;28;20676;-79
2023/07/17 00:11:14;;;;;;;72.90;4.37;;;21.30;1.00;;;;;;5099309;28;20160;-79
2023/07/17 00:13:40;;;;;;;71.27;5.47;;;21.30;1.00;;;;;;5099427;28;20569;-79
2023/07/17 00:16:05;;;;;;;68.60;3.80;;;21.30;1.00;;;;;;5099373;28;20247;-79
2023/07/17 00:18:34;;;;;;;70.87;4.43;;;21.20;1.00;;;;;;5098329;28;20178;-79
2023/07/17 00:21:00;;;;;;;77.83;5.10;;;21.20;1.00;;;;;;5099469;28;20167;-79
2023/07/17 00:23:26;;;;;;;69.20;4.43;;;21.10;1.00;;;;;;5098814;28;20484;-79
2023/07/17 00:25:52;;;;;;;69.60;4.17;;;21.10;1.00;;;;;;5080511;28;20412;-79
2023/07/17 00:28:18;;;;;;;68.97;3.80;;;21.20;1.00;;;;;;5099111;28;20181;-79
2023/07/17 00:30:43;;;;;;;69.70;4.10;;;21.10;1.00;;;;;;5099001;28;20171;-79
2023/07/17 00:33:09;;;;;;;68.10;3.87;;;21.20;1.00;;;;;;5098825;28;20155;-79
2023/07/17 00:35:35;;;;;;;71.10;4.90;;;21.20;1.00;;;;;;5099006;28;20228;-79
2023/07/17 00:38:01;;;;;;;68.90;3.93;;;21.10;1.00;;;;;;5080419;28;20195;-79
2023/07/17 00:40:27;;;;;;;72.50;4.83;;;21.10;1.00;;;;;;5080336;28;20413;-79
2023/07/17 00:42:59;;;;;;;71.90;5.90;;;21.10;1.00;;;;;;5098228;28;20195;-79
2023/07/17 00:45:31;;;;;;;71.20;4.20;;;21.10;1.00;;;;;;5098655;28;20206;-79
2023/07/17 00:47:58;;;;;;;69.60;4.00;;;21.10;1.00;;;;;;5098417;28;20424;-79
2023/07/17 00:50:24;;;;;;;72.43;3.87;;;21.10;1.00;;;;;;5098296;28;20398;-79
2023/07/17 00:52:49;;;;;;;70.60;4.50;;;21.10;1.00;;;;;;5098485;28;20892;-79
2023/07/17 00:55:17;;;;;;;70.50;4.60;;;21.10;1.00;;;;;;5098309;28;20400;-79
2023/07/17 00:57:43;;;;;;;68.10;4.67;;;21.10;1.00;;;;;;5098034;28;20167;-79
2023/07/17 01:00:11;;;;;;;73.33;5.07;;;21.10;1.00;;;;;;5097788;28;20546;-78
2023/07/17 01:02:41;;;;;;;70.50;4.80;;;21.00;1.00;;;;;;5079776;28;20530;-79
2023/07/17 01:05:08;;;;;;;68.77;4.73;;;21.00;1.00;;;;;;5098087;28;20392;-79
2023/07/17 01:07:34;;;;;;;66.67;4.50;;;21.00;1.00;;;;;;5079521;28;20545;-79
2023/07/17 01:10:00;;;;;;;67.33;4.60;;;21.00;1.00;;;;;;5097712;28;20836;-79
2023/07/17 01:12:27;;;;;;;69.13;4.77;;;20.90;1.00;;;;;;5097757;28;20496;-79
2023/07/17 01:14:53;;;;;;;68.97;3.83;;;20.80;1.00;;;;;;5079232;28;20917;-79
2023/07/17 01:17:19;;;;;;;70.10;4.27;;;20.60;1.00;;;;;;5097450;28;20495;-79
2023/07/17 01:19:44;;;;;;;67.67;4.33;;;20.70;1.00;;;;;;5096974;28;20191;-79
2023/07/17 01:22:16;;;;;;;67.20;4.07;;;20.70;1.00;;;;;;5096433;28;20189;-79
2023/07/17 01:24:41;;;;;;;70.67;4.50;;;20.70;1.00;;;;;;5097105;28;20228;-79
2023/07/17 01:27:07;;;;;;;71.17;4.93;;;20.70;1.00;;;;;;5097141;28;20413;-79
2023/07/17 01:29:33;;;;;;;67.10;4.10;;;20.70;1.00;;;;;;5097654;28;20210;-79
2023/07/17 01:31:58;;;;;;;67.50;4.20;;;20.80;1.00;;;;;;5097232;28;20199;-79
2023/07/17 01:34:27;;;;;;;68.60;4.33;;;20.70;1.00;;;;;;5097911;28;20240;-79
2023/07/17 01:36:53;;;;;;;69.10;4.90;;;20.70;1.00;;;;;;5097026;28;20168;-79
2023/07/17 01:39:18;;;;;;;67.67;4.43;;;20.70;1.00;;;;;;5097005;28;20431;-79
2023/07/17 01:41:44;;;;;;;68.73;4.20;;;20.80;1.00;;;;;;5097116;28;20704;-79
2023/07/17 01:44:09;;;;;;;70.10;4.27;;;20.80;1.00;;;;;;5097166;28;20174;-79
2023/07/17 01:46:35;;;;;;;67.10;4.17;;;20.80;1.00;;;;;;5097013;28;20167;-79
2023/07/17 01:49:01;;;;;;;69.17;4.53;;;20.80;1.00;;;;;;5096615;28;20184;-79
2023/07/17 01:51:27;;;;;;;67.50;3.97;;;20.80;1.00;;;;;;5096891;28;20198;-79
2023/07/17 01:53:52;;;;;;;67.70;4.23;;;20.80;1.00;;;;;;5096777;28;20405;-79
2023/07/17 01:56:18;;;;;;;67.97;3.93;;;20.90;1.00;;;;;;5078931;28;20208;-79
2023/07/17 01:58:44;;;;;;;66.17;3.63;;;20.80;1.00;;;;;;5096694;28;20184;-80
2023/07/17 02:01:09;;;;;;;68.70;4.57;;;20.80;1.00;;;;;;5177832;22;20224;-78
2023/07/17 02:03:36;;;;;;;69.40;4.30;;;20.80;1.00;;;;;;5117375;28;20176;-78
2023/07/17 02:06:02;;;;;;;67.90;3.73;;;20.80;1.00;;;;;;5117830;28;20159;-78
2023/07/17 02:08:28;;;;;;;69.60;3.80;;;20.80;1.00;;;;;;5109650;28;20444;-78
2023/07/17 02:10:53;;;;;;;67.60;3.47;;;20.70;1.00;;;;;;5097755;28;20464;-79
2023/07/17 02:13:19;;;;;;;67.40;4.23;;;20.60;1.00;;;;;;5096678;28;20169;-78
2023/07/17 02:15:45;;;;;;;68.83;4.50;;;20.60;1.00;;;;;;5097139;28;20190;-78
2023/07/17 02:18:11;;;;;;;69.40;4.17;;;20.60;1.00;;;;;;5096542;28;20847;-78
2023/07/17 02:20:37;;;;;;;67.03;3.63;;;20.60;1.00;;;;;;5097032;28;20421;-78
2023/07/17 02:23:02;;;;;;;68.27;4.57;;;20.60;1.00;;;;;;5209162;22;20390;-79
2023/07/17 02:25:28;;;;;;;69.50;4.20;;;20.70;1.00;;;;;;5212589;22;20715;-79
2023/07/17 02:27:54;;;;;;;67.47;3.60;;;20.50;1.00;;;;;;5112612;28;20186;-79
2023/07/17 02:32:47;;;;;;;67.30;3.40;;;20.50;1.00;;;;;;5211150;22;20226;-79
2023/07/17 02:35:13;;;;;;;68.47;4.10;;;20.40;1.00;;;;;;5203154;22;20900;-78
2023/07/17 02:37:38;;;;;;;66.37;3.50;;;20.40;1.00;;;;;;5208546;22;20312;-79
2023/07/17 02:40:15;;;;;;;69.23;3.80;;;20.50;1.00;;;;;;5203061;22;20218;-78
2023/07/17 02:42:41;;;;;;;67.90;3.70;;;20.40;1.00;;;;;;5097903;28;20179;-79
2023/07/17 02:45:08;;;;;;;68.83;3.60;;;20.40;1.00;;;;;;5222493;22;20421;-79
2023/07/17 02:52:34;;;;;;;68.10;3.83;;;20.30;1.00;;;;;;5074041;28;20830;-79
2023/07/17 02:55:00;;;;;;;67.80;3.70;;;20.40;1.00;;;;;;5057615;28;20773;-79
2023/07/17 02:57:26;;;;;;;66.30;3.83;;;20.30;1.00;;;;;;5075414;28;20390;-79
2023/07/17 02:59:54;;;;;;;66.30;3.50;;;20.30;1.00;;;;;;5055526;28;20436;-79
2023/07/17 03:02:20;;;;;;;67.30;4.37;;;20.30;1.00;;;;;;5055281;28;20183;-79
2023/07/17 03:04:45;;;;;;;67.50;3.47;;;20.20;1.00;;;;;;5055345;28;20579;-79
2023/07/17 03:07:11;;;;;;;67.80;3.60;;;20.20;1.00;;;;;;5055355;28;20465;-79
2023/07/17 03:09:37;;;;;;;67.67;3.47;;;20.10;1.00;;;;;;5038003;28;20275;-79
2023/07/17 03:12:03;;;;;;;69.07;4.27;;;20.10;1.00;;;;;;5055267;28;20431;-79
2023/07/17 03:14:29;;;;;;;68.77;4.47;;;20.10;1.00;;;;;;5055460;28;20189;-79
2023/07/17 03:16:54;;;;;;;66.47;4.30;;;20.10;1.00;;;;;;5055037;28;20423;-79
2023/07/17 03:19:20;;;;;;;68.73;4.30;;;20.10;1.00;;;;;;5055594;28;20267;-79
2023/07/17 03:21:46;;;;;;;67.50;4.57;;;20.00;1.00;;;;;;5055203;28;20186;-79
2023/07/17 03:24:11;;;;;;;68.73;4.30;;;20.00;1.00;;;;;;5055357;28;20188;-79
2023/07/17 03:26:37;;;;;;;66.97;4.80;;;20.00;1.00;;;;;;5055366;28;20509;-79
2023/07/17 03:29:04;;;;;;;67.87;4.40;;;20.00;1.00;;;;;;5055129;28;20666;-79
2023/07/17 03:31:29;;;;;;;68.40;5.27;;;19.90;1.00;;;;;;5037113;28;20164;-79
2023/07/17 03:33:55;;;;;;;67.67;5.30;;;20.00;1.00;;;;;;5055611;28;20962;-79
2023/07/17 03:36:21;;;;;;;70.37;4.87;;;20.00;1.00;;;;;;5055016;28;20154;-79
2023/07/17 03:38:47;;;;;;;66.90;4.87;;;19.90;1.00;;;;;;5054932;28;20230;-79
2023/07/17 03:41:12;;;;;;;68.90;5.30;;;19.90;1.00;;;;;;5054893;28;20813;-79
2023/07/17 03:43:38;;;;;;;68.27;5.10;;;19.90;1.00;;;;;;5055765;28;20261;-79
2023/07/17 03:46:04;;;;;;;71.87;5.10;;;19.90;1.00;;;;;;5059244;28;20540;-79
2023/07/17 03:48:29;;;;;;;70.20;4.67;;;19.90;1.00;;;;;;5059251;28;20312;-79
2023/07/17 03:50:55;;;;;;;68.30;4.30;;;19.90;1.00;;;;;;5058898;28;20239;-79
2023/07/17 03:53:21;;;;;;;68.20;4.50;;;19.80;1.00;;;;;;5059222;28;20168;-79
2023/07/17 03:55:46;;;;;;;66.33;4.30;;;19.90;1.00;;;;;;5059287;28;20177;-79
2023/07/17 03:58:12;;;;;;;68.10;4.60;;;19.90;1.00;;;;;;5058579;28;20263;-79
2023/07/17 04:00:38;;;;;;;68.23;4.70;;;19.80;1.00;;;;;;5059167;28;20165;-79
2023/07/17 04:03:03;;;;;;;68.70;5.10;;;19.70;1.00;;;;;;5058882;28;20184;-79
2023/07/17 04:05:29;;;;;;;68.20;5.13;;;19.70;1.00;;;;;;5058735;28;20245;-79
2023/07/17 04:07:56;;;;;;;68.47;5.17;;;19.70;1.00;;;;;;5058502;28;20551;-79
2023/07/17 04:10:27;;;;;;;68.53;5.70;;;19.60;1.00;;;;;;5058825;28;20578;-79
2023/07/17 04:12:53;;;;;;;66.87;5.30;;;19.70;1.00;;;;;;5058202;28;20644;-79
2023/07/17 04:15:19;;;;;;;71.60;5.27;;;19.70;1.00;;;;;;5058553;28;20404;-79
2023/07/17 04:17:44;;;;;;;69.90;5.97;;;19.70;1.00;;;;;;5058284;28;20256;-79
2023/07/17 04:20:11;;;;;;;70.60;6.17;;;19.70;1.00;;;;;;5058115;28;20312;-79
2023/07/17 04:22:36;;;;;;;67.50;5.40;;;19.70;1.00;;;;;;5058679;28;20186;-79
2023/07/17 04:25:03;;;;;;;68.57;6.10;;;19.80;1.00;;;;;;5058375;28;20759;-79
2023/07/17 04:27:30;;;;;;;69.13;5.83;;;19.80;1.00;;;;;;5040060;28;20170;-79
2023/07/17 04:29:56;;;;;;;68.57;5.63;;;19.80;1.00;;;;;;5058902;28;20402;-79
2023/07/17 04:32:22;;;;;;;67.70;5.70;;;19.80;1.00;;;;;;5057909;28;20408;-79
2023/07/17 04:34:48;;;;;;;68.90;6.17;;;19.80;1.00;;;;;;5058088;28;20167;-79
2023/07/17 04:37:14;;;;;;;69.60;5.40;;;19.80;1.00;;;;;;5040087;28;20255;-79
2023/07/17 04:39:39;;;;;;;70.53;6.70;;;19.80;1.00;;;;;;5058351;28;20459;-79
2023/07/17 04:42:05;;;;;;;69.97;5.87;;;19.80;1.00;;;;;;5058237;28;20189;-79
2023/07/17 04:44:31;;;;;;;67.37;5.30;;;19.80;1.00;;;;;;5057791;28;20159;-79
2023/07/17 04:46:57;;;;;;;68.13;5.43;;;19.80;1.00;;;;;;5058024;28;20189;-79
2023/07/17 04:49:22;;;;;;;69.33;4.03;;;20.00;1.00;;;;;;5057794;28;20424;-79
2023/07/17 04:51:48;;;;;;;68.50;4.83;;;20.20;1.00;;;;;;5057892;28;20210;-79
2023/07/17 04:54:14;;;;;;;69.50;5.03;;;20.40;1.00;;;;;;5057863;28;20176;-79
2023/07/17 04:56:39;;;;;;;68.77;4.33;;;20.40;1.00;;;;;;5057901;28;20161;-79
2023/07/17 04:59:05;;;;;;;66.50;4.20;;;20.30;1.00;;;;;;5057680;28;20204;-79
2023/07/17 05:01:31;;;;;;;73.70;4.53;;;20.30;1.00;;;;;;5040030;28;20195;-79
2023/07/17 05:03:56;;;;;;;67.70;4.20;;;20.30;1.00;;;;;;5057919;28;20245;-79
2023/07/17 05:06:22;;;;;;;70.60;5.80;;;20.40;1.00;;;;;;5058026;28;20574;-79
2023/07/17 05:08:47;;;;;;;72.57;4.80;;;20.50;1.00;;;;;;5057401;28;20272;-79
2023/07/17 05:11:13;;;;;;;67.93;3.93;;;20.60;1.00;;;;;;5057819;28;20169;-79
2023/07/17 05:13:39;;;;;;;68.70;5.10;;;20.60;1.00;;;;;;5058065;28;20217;-79
2023/07/17 05:16:05;;;;;;;68.53;3.83;;;20.60;1.00;;;;;;5057763;28;20165;-79
2023/07/17 05:18:31;;;;;;;70.07;5.07;;;20.70;1.00;;;;;;5057765;28;20430;-79
2023/07/17 05:20:56;;;;;;;69.27;4.73;;;20.70;1.00;;;;;;5058147;28;20383;-79
2023/07/17 05:23:22;;;;;;;70.57;4.47;;;20.60;1.00;;;;;;5056798;28;20194;-79
2023/07/17 05:25:59;;;;;;;68.47;4.17;;;20.50;1.00;;;;;;5057055;28;20671;-78
2023/07/17 05:28:27;;;;;;;67.67;3.90;;;20.50;1.00;;;;;;5056645;28;20677;-79
2023/07/17 05:30:54;;;;;;;70.60;3.83;;;20.50;1.00;;;;;;5038869;28;20461;-78
2023/07/17 05:33:20;;;;;;;67.03;3.90;;;20.50;1.00;;;;;;5056610;28;20408;-79
2023/07/17 05:35:46;;;;;;;66.90;4.10;;;20.50;1.00;;;;;;5039048;28;20471;-79
2023/07/17 05:38:11;;;;;;;68.10;3.93;;;20.40;1.00;;;;;;5056633;28;20420;-78
2023/07/17 05:40:39;;;;;;;68.43;4.47;;;20.50;1.00;;;;;;5056769;28;20244;-78
2023/07/17 05:43:05;;;;;;;68.77;3.80;;;20.50;1.00;;;;;;5056325;28;20191;-78
2023/07/17 05:45:31;;;;;;;68.73;4.17;;;20.50;1.00;;;;;;5056612;28;20400;-78
2023/07/17 05:47:56;;;;;;;70.17;4.40;;;20.40;1.00;;;;;;5055615;28;20483;-78
2023/07/17 05:50:22;;;;;;;68.93;4.10;;;20.50;1.00;;;;;;5055893;28;20164;-78
2023/07/17 05:52:47;;;;;;;70.73;3.60;;;20.50;1.00;;;;;;5056065;28;20215;-78
2023/07/17 05:55:13;;;;;;;70.17;3.70;;;20.50;1.00;;;;;;5037726;28;20180;-78
2023/07/17 05:57:39;;;;;;;66.57;3.97;;;20.40;1.00;;;;;;5055385;28;20239;-78
2023/07/17 06:00:05;;;;;;;69.03;4.67;;;20.40;1.00;;;;;;5055514;28;20175;-78
2023/07/17 06:02:31;;;;;;;67.53;3.67;;;20.40;1.00;;;;;;5055846;28;20193;-78
2023/07/17 06:04:57;;;;;;;70.20;3.80;;;20.50;1.00;;;;;;5056074;28;20841;-78
2023/07/17 06:07:22;;;;;;;71.30;4.30;;;20.50;1.00;;;;;;5055653;28;20169;-78
2023/07/17 06:09:48;;;;;;;66.90;4.10;;;20.40;1.00;;;;;;5055934;28;20179;-78
2023/07/17 06:12:14;;;;;;;69.70;4.80;;;20.40;1.00;;;;;;5055841;28;20161;-78
2023/07/17 06:14:39;;;;;;;68.60;4.20;;;20.30;1.00;;;;;;5056332;28;20181;-78
2023/07/17 06:17:05;;;;;;;67.00;3.80;;;20.30;1.00;;;;;;5038025;28;20201;-78
2023/07/17 06:19:31;;;;;;;67.63;3.93;;;20.10;1.00;;;;;;5055967;28;20191;-79
2023/07/17 06:21:56;;;;;;;68.10;4.20;;;20.00;1.00;;;;;;5056075;28;20199;-79
2023/07/17 06:24:22;;;;;;;69.07;4.27;;;19.90;1.00;;;;;;5055599;28;20174;-78
2023/07/17 06:26:48;;;;;;;67.50;3.87;;;19.90;1.00;;;;;;5056138;28;20649;-78
2023/07/17 06:29:13;;;;;;;68.00;4.13;;;19.80;1.00;;;;;;5055412;28;20179;-79
2023/07/17 06:31:39;;;;;;;68.57;3.90;;;19.80;1.00;;;;;;5055712;28;20409;-78
2023/07/17 06:34:05;;;;;;;66.20;3.60;;;20.00;1.00;;;;;;5055276;28;20248;-78
2023/07/17 06:36:31;;;;;;;66.67;4.43;;;20.00;1.00;;;;;;5055202;28;20486;-78
2023/07/17 06:38:56;;;;;;;69.87;4.60;;;19.90;1.00;;;;;;5055563;28;20189;-78
2023/07/17 06:41:22;;;;;;;66.97;4.30;;;20.10;1.00;;;;;;5055592;28;20193;-78
2023/07/17 06:43:48;;;;;;;69.60;5.27;;;20.10;1.00;;;;;;5055487;28;20158;-78
2023/07/17 06:46:13;;;;;;;67.20;4.17;;;20.10;1.00;;;;;;5055370;28;20222;-78
2023/07/17 06:48:41;;;;;;;67.87;4.20;;;20.10;1.00;;;;;;5055310;28;20200;-79
2023/07/17 06:51:06;;;;;;;68.10;4.20;;;20.10;1.00;;;;;;5055019;28;20198;-78
2023/07/17 06:53:35;;;;;;;73.80;4.00;;;20.10;1.00;;;;;;5056170;28;20416;-78
2023/07/17 06:56:01;;;;;;;67.13;4.30;;;20.10;1.00;;;;;;5055960;28;20172;-79
2023/07/17 06:58:28;;;;;;;66.80;4.17;;;20.10;1.00;;;;;;5055594;28;20425;-78
2023/07/17 07:00:57;;;;;;;66.97;4.60;;;20.10;1.00;;;;;;5055506;28;20872;-79
2023/07/17 07:03:24;;;;;;;66.90;4.20;;;20.10;1.00;;;;;;5055329;28;20480;-79
2023/07/17 07:06:08;;;;;;;67.00;4.07;;;20.20;1.00;;;;;;5055029;28;20743;-78
2023/07/17 07:08:34;;;;;;;71.00;4.60;;;20.30;1.00;;;;;;5037607;28;20506;-78
2023/07/17 07:11:02;;;;;;;68.37;3.97;;;20.30;1.00;;;;;;5055297;28;20482;-78
2023/07/17 07:13:29;;;;;;;68.97;4.73;;;20.40;1.00;;;;;;5054878;28;20403;-78
2023/07/17 07:15:55;;;;;;;71.70;4.80;;;20.40;1.00;;;;;;5055187;28;20399;-78
2023/07/17 07:18:21;;;;;;;68.67;4.17;;;20.30;1.00;;;;;;5054730;28;20419;-78
2023/07/17 07:20:49;;;;;;;71.20;4.30;;;20.30;1.00;;;;;;5054738;28;20161;-78
2023/07/17 07:23:14;;;;;;;68.27;4.23;;;20.30;1.00;;;;;;5054836;28;20439;-79
2023/07/17 07:25:41;;;;;;;71.70;4.57;;;20.30;1.00;;;;;;5054799;28;20524;-78
2023/07/17 07:28:06;;;;;;;69.17;3.80;;;20.30;1.00;;;;;;5054433;28;20228;-78
2023/07/17 07:30:32;;;;;;;71.27;4.57;;;20.40;1.00;;;;;;5054830;28;20400;-78
2023/07/17 07:32:58;;;;;;;70.27;4.87;;;20.40;1.00;;;;;;5036899;28;20257;-78
2023/07/17 07:35:24;;;;;;;68.80;4.60;;;20.50;1.00;;;;;;5054625;28;20174;-78
2023/07/17 07:37:49;;;;;;;71.03;4.40;;;20.40;1.00;;;;;;5055274;28;20189;-79
2023/07/17 07:40:15;;;;;;;70.83;5.10;;;20.40;1.00;;;;;;5054295;28;20420;-78
2023/07/17 07:42:42;;;;;;;69.40;4.33;;;20.50;1.00;;;;;;5054197;28;20644;-78
2023/07/17 07:45:12;;;;;;;69.30;4.97;;;20.50;1.00;;;;;;5054844;28;20168;-78
2023/07/17 07:47:38;;;;;;;71.50;5.30;;;20.50;1.00;;;;;;5054318;28;20426;-79
2023/07/17 07:50:05;;;;;;;71.47;4.53;;;20.50;1.00;;;;;;5054551;28;20825;-78
2023/07/17 07:52:30;;;;;;;68.07;4.13;;;20.60;1.00;;;;;;5054874;28;20411;-78
2023/07/17 07:54:56;;;;;;;70.00;4.77;;;20.50;1.00;;;;;;5054609;28;20495;-78
2023/07/17 07:57:22;;;;;;;69.03;4.50;;;20.60;1.00;;;;;;5054499;28;20696;-78
2023/07/17 07:59:51;;;;;;;69.10;3.83;;;20.70;1.00;;;;;;5054065;28;20218;-78
2023/07/17 08:02:17;;;;;;;69.90;4.50;;;20.70;1.00;;;;;;5182079;22;20495;-82
2023/07/17 08:04:43;;;;;;;69.70;4.30;;;20.70;1.00;;;;;;5103733;28;20442;-81
2023/07/17 08:07:10;;;;;;;70.47;4.93;;;20.60;1.00;;;;;;5104820;28;20396;-83
2023/07/17 08:09:35;;;;;;;68.77;4.40;;;20.60;1.00;;;;;;5104834;28;20422;-82
2023/07/17 08:12:01;;;;;;;68.37;4.13;;;20.80;1.00;;;;;;5083891;28;20492;-82
2023/07/17 08:14:26;;;;;;;68.67;4.37;;;20.90;1.00;;;;;;5103562;28;20164;-83
2023/07/17 08:16:52;;;;;;;73.90;3.90;;;21.00;1.00;;;;;;5084873;28;20197;-82
2023/07/17 08:19:19;;;;;;;71.93;4.60;;;21.00;1.00;;;;;;5084779;28;20209;-82
2023/07/17 08:21:45;;;;;;;69.10;4.93;;;21.10;1.00;;;;;;5084439;28;20288;-82
2023/07/17 08:24:10;;;;;;;69.80;4.73;;;21.10;1.00;;;;;;5103351;28;20442;-81
2023/07/17 08:26:38;;;;;;;74.00;4.67;;;21.20;1.00;;;;;;5083872;28;20406;-81
2023/07/17 08:29:07;;;;;;;69.70;4.90;;;21.20;1.00;;;;;;5102434;28;20198;-82
2023/07/17 08:31:34;;;;;;;68.80;3.90;;;21.30;1.00;;;;;;5087157;28;20490;-82
2023/07/17 08:34:00;;;;;;;71.07;4.73;;;21.30;1.00;;;;;;5106803;28;20404;-81
2023/07/17 08:36:31;;;;;;;70.60;4.80;;;21.30;1.00;;;;;;5088046;28;20406;-81
2023/07/17 08:38:56;;;;;;;68.47;4.03;;;21.40;1.00;;;;;;5107252;28;20428;-82
2023/07/17 08:41:23;;;;;;;74.57;4.67;;;21.50;1.00;;;;;;5105556;28;20398;-82
2023/07/17 08:43:49;;;;;;;72.53;5.00;;;21.60;1.00;;;;;;5081883;28;20451;-82
2023/07/17 08:46:15;;;;;;;69.70;4.47;;;21.70;1.00;;;;;;5081555;28;20413;-83
2023/07/17 08:48:45;;;;;;;71.40;5.07;;;21.90;1.00;;;;;;5083080;28;20456;-82
2023/07/17 08:51:11;;;;;;;71.63;5.00;;;22.00;1.00;;;;;;5085819;28;20492;-82
2023/07/17 08:53:44;;;;;;;74.20;4.67;;;22.10;1.00;;;;;;5086909;28;20431;-81
2023/07/17 08:56:14;;;;;;;70.57;4.90;;;22.20;1.00;;;;;;5103991;28;20414;-82
2023/07/17 08:58:40;;;;;;;70.07;4.57;;;22.20;1.00;;;;;;5104934;28;20433;-82
2023/07/17 09:01:07;;;;;;;72.63;4.80;;;22.30;1.00;;;;;;5104415;28;20440;-81
2023/07/17 09:03:34;;;;;;;78.53;5.30;;;22.30;1.00;;;;;;5085699;28;20437;-82
2023/07/17 09:06:03;;;;;;;72.20;4.97;;;22.40;1.00;;;;;;5085188;28;20409;-82
2023/07/17 09:08:29;;;;;;;70.87;3.97;;;22.30;1.00;;;;;;5084818;28;20482;-82
2023/07/17 09:11:05;;;;;;;72.10;4.80;;;22.30;1.00;;;;;;5104960;28;20398;-81
2023/07/17 09:13:46;;;;;;;68.23;4.37;;;22.30;1.00;;;;;;5105122;28;20167;-81
2023/07/17 09:16:18;;;;;;;69.67;4.60;;;22.40;1.00;;;;;;5088364;28;20432;-82
2023/07/17 09:18:45;;;;;;;68.20;4.27;;;22.40;1.00;;;;;;5106500;28;20788;-82
2023/07/17 09:21:12;;;;;;;70.83;4.40;;;22.60;1.00;;;;;;5106130;28;20401;-81
2023/07/17 09:23:47;;;;;;;73.67;4.60;;;22.60;1.00;;;;;;5099524;28;20982;-83
2023/07/17 09:26:24;;;;;;;69.87;4.87;;;22.50;1.00;;;;;;5100030;28;20385;-82
2023/07/17 09:28:53;;;;;;;76.63;4.60;;;22.40;1.00;;;;;;5104129;28;20413;-82
2023/07/17 09:31:29;;;;;;;71.20;4.60;;;22.40;1.00;;;;;;5103888;28;20397;-81
2023/07/17 09:34:00;;;;;;;74.73;5.10;;;22.40;1.00;;;;;;5086653;28;20413;-82
2023/07/17 09:36:27;;;;;;;69.37;4.63;;;22.50;1.00;;;;;;5102946;28;20382;-82
2023/07/17 09:38:54;;;;;;;70.77;4.83;;;22.60;1.00;;;;;;5102112;28;20421;-82
2023/07/17 09:41:27;;;;;;;70.47;4.43;;;22.80;1.00;;;;;;5100338;28;20409;-82
2023/07/17 09:44:01;;;;;;;71.80;4.60;;;23.00;1.00;;;;;;5102441;28;20768;-83
2023/07/17 09:46:31;;;;;;;70.47;4.33;;;23.40;1.00;;;;;;5103997;28;20402;-81
2023/07/17 09:48:58;;;;;;;72.30;3.97;;;23.70;1.00;;;;;;5103181;28;20409;-82
2023/07/17 09:51:24;;;;;;;69.40;4.83;;;23.80;1.00;;;;;;5103457;28;20397;-81
2023/07/17 09:53:51;;;;;;;68.67;4.23;;;24.00;1.00;;;;;;5085581;28;20492;-82
2023/07/17 09:56:19;;;;;;;70.20;4.77;;;24.20;1.00;;;;;;5103658;28;20474;-81
2023/07/17 09:58:53;;;;;;;70.00;4.27;;;24.40;1.00;;;;;;5084025;28;20433;-82
2023/07/17 10:01:22;;;;;;;69.80;4.47;;;24.40;1.00;;;;;;5081674;28;20519;-83
2023/07/17 10:03:49;;;;;;;74.40;4.97;;;24.40;1.00;;;;;;5080471;28;20529;-82
2023/07/17 10:06:18;;;;;;;72.80;4.40;;;24.70;1.00;;;;;;5080084;28;20504;-82
2023/07/17 10:08:46;;;;;;;69.83;5.20;;;25.00;1.00;;;;;;5097241;28;20437;-83
2023/07/17 10:11:24;;;;;;;68.40;4.57;;;25.20;1.00;;;;;;5080215;28;20910;-83
2023/07/17 10:13:56;;;;;;;70.77;5.20;;;25.30;1.00;;;;;;5079409;28;20391;-83
2023/07/17 10:16:33;;;;;;;72.13;5.17;;;25.10;1.00;;;;;;5098260;28;20380;-83
2023/07/17 10:19:01;;;;;;;71.57;4.50;;;25.10;1.00;;;;;;5078347;28;20518;-83
2023/07/17 10:21:26;;;;;;;71.03;4.73;;;24.90;1.00;;;;;;5078831;28;20417;-83
2023/07/17 10:23:52;;;;;;;69.87;5.27;;;25.00;1.00;;;;;;5096676;28;20780;-82
2023/07/17 10:26:21;;;;;;;70.83;4.90;;;25.00;1.00;;;;;;5096366;28;20172;-83
2023/07/17 10:28:57;;;;;;;68.97;4.07;;;24.90;1.00;;;;;;5078571;28;20663;-84
2023/07/17 10:31:23;;;;;;;71.03;4.67;;;25.00;1.00;;;;;;5098756;28;20444;-84
2023/07/17 10:33:55;;;;;;;75.70;6.93;;;24.90;1.00;;;;;;5098126;28;20408;-83
2023/07/17 10:36:39;;;;;;;72.90;5.23;;;25.10;1.00;;;;;;5100145;28;20485;-84
2023/07/17 10:39:14;;;;;;;72.57;5.00;;;25.20;1.00;;;;;;5098529;28;20515;-84
2023/07/17 10:41:46;;;;;;;75.13;4.77;;;25.20;1.00;;;;;;5080398;28;20406;-83
2023/07/17 10:44:21;;;;;;;71.70;5.67;;;25.30;1.00;;;;;;5099421;28;20934;-84
2023/07/17 10:46:47;;;;;;;70.87;4.63;;;25.30;1.00;;;;;;5079965;28;20404;-82
2023/07/17 10:49:17;;;;;;;75.13;5.00;;;25.50;1.00;;;;;;5079011;28;20424;-83
2023/07/17 10:51:43;;;;;;;69.87;5.00;;;25.60;1.00;;;;;;5099484;28;20406;-82
2023/07/17 10:54:11;;;;;;;69.17;4.70;;;25.80;1.00;;;;;;5100971;28;20405;-83
2023/07/17 10:56:37;;;;;;;70.30;5.60;;;26.00;1.00;;;;;;5083248;28;20416;-81
2023/07/17 10:59:04;;;;;;;70.17;4.73;;;26.30;1.00;;;;;;5100954;28;20422;-82
2023/07/17 11:01:32;;;;;;;73.30;5.50;;;26.30;1.00;;;;;;5082199;28;20441;-83
2023/07/17 11:03:59;;;;;;;72.57;6.40;;;26.40;1.00;;;;;;5102378;28;20409;-82
2023/07/17 11:06:26;;;;;;;71.17;5.30;;;26.50;1.00;;;;;;5082505;28;20500;-82
2023/07/17 11:08:52;;;;;;;70.83;4.70;;;26.30;1.00;;;;;;5083224;28;20436;-80
2023/07/17 11:11:18;;;;;;;72.27;5.97;;;26.10;1.00;;;;;;5083835;28;20408;-83
2023/07/17 11:13:45;;;;;;;71.43;5.07;;;25.90;1.00;;;;;;5101438;28;20449;-81
2023/07/17 11:16:12;;;;;;;70.77;5.80;;;25.90;1.00;;;;;;5081810;28;20412;-83
2023/07/17 11:18:47;;;;;;;70.60;4.90;;;25.90;1.00;;;;;;5082937;28;20438;-82
2023/07/17 11:21:15;;;;;;;72.50;5.53;;;25.70;1.00;;;;;;5103176;28;20480;-82
2023/07/17 11:23:49;;;;;;;70.87;4.70;;;25.80;1.00;;;;;;5083382;28;20439;-82
2023/07/17 11:26:26;;;;;;;69.53;4.97;;;25.90;1.00;;;;;;5103092;28;20919;-82
2023/07/17 11:28:54;;;;;;;72.60;5.90;;;26.00;1.00;;;;;;5084821;28;20427;-81
2023/07/17 11:31:30;;;;;;;70.40;5.50;;;25.90;1.00;;;;;;5084861;28;20864;-82
2023/07/17 11:34:09;;;;;;;71.20;5.30;;;25.60;1.00;;;;;;5100316;28;20770;-80
2023/07/17 11:36:40;;;;;;;69.17;4.77;;;25.80;1.00;;;;;;5097077;28;20775;-81
2023/07/17 11:39:18;;;;;;;68.80;4.37;;;25.50;1.00;;;;;;5083660;28;20434;-81
2023/07/17 11:41:52;;;;;;;69.50;4.60;;;25.50;1.00;;;;;;5096810;28;20415;-82
2023/07/17 11:44:34;;;;;;;70.27;5.10;;;25.80;1.00;;;;;;5078873;28;20427;-82
2023/07/17 11:47:05;;;;;;;71.80;5.80;;;26.00;1.00;;;;;;5082509;28;20393;-82
2023/07/17 11:49:33;;;;;;;71.47;6.33;;;26.20;1.00;;;;;;5083683;28;20966;-83
2023/07/17 11:51:59;;;;;;;70.60;6.33;;;26.50;1.00;;;;;;5084486;28;20440;-81
2023/07/17 11:54:29;;;;;;;71.70;5.60;;;26.40;1.00;;;;;;5098471;28;20934;-81
2023/07/17 11:57:03;;;;;;;72.07;5.47;;;26.30;1.00;;;;;;5101171;28;20167;-82
2023/07/17 11:59:28;;;;;;;70.60;5.40;;;26.20;1.00;;;;;;5081858;28;20834;-82
2023/07/17 12:01:54;;;;;;;71.27;5.30;;;26.30;1.00;;;;;;5102511;28;20456;-81
2023/07/17 12:04:22;;;;;;;71.23;5.67;;;26.20;1.00;;;;;;5083862;28;20170;-81
2023/07/17 12:06:48;;;;;;;69.93;4.63;;;26.30;1.00;;;;;;5104506;28;20247;-83
2023/07/17 12:09:14;;;;;;;71.70;4.70;;;26.30;1.00;;;;;;5106120;28;20417;-82
2023/07/17 12:11:42;;;;;;;70.17;5.30;;;26.30;1.00;;;;;;5105493;28;20410;-82
2023/07/17 12:14:08;;;;;;;70.07;5.27;;;26.40;1.00;;;;;;5105862;28;20203;-81
2023/07/17 12:16:33;;;;;;;69.50;5.43;;;26.80;1.00;;;;;;5085964;28;20416;-81
2023/07/17 12:18:59;;;;;;;69.97;6.23;;;27.30;1.00;;;;;;5106533;28;20210;-82
2023/07/17 12:21:25;;;;;;;72.57;7.43;;;27.70;1.00;;;;;;5105930;28;20160;-82
2023/07/17 12:23:50;;;;;;;75.80;7.90;;;28.00;1.00;;;;;;5104990;28;20195;-81
2023/07/17 12:26:17;;;;;;;72.93;7.90;;;27.90;1.00;;;;;;5104314;28;20162;-82
2023/07/17 12:28:43;;;;;;;75.30;8.80;;;27.70;1.00;;;;;;5085423;28;20190;-81
2023/07/17 12:31:10;;;;;;;72.60;8.10;;;27.80;1.00;;;;;;5102635;28;20805;-82
2023/07/17 12:33:35;;;;;;;73.50;8.10;;;27.90;1.00;;;;;;5101896;28;20167;-81
2023/07/17 12:36:01;;;;;;;75.67;8.80;;;27.60;1.00;;;;;;5100608;28;20404;-82
2023/07/17 12:38:27;;;;;;;71.10;7.70;;;27.60;1.00;;;;;;5082176;28;20194;-80
2023/07/17 12:40:52;;;;;;;72.27;8.03;;;27.50;1.00;;;;;;5100121;28;20246;-81
2023/07/17 12:43:18;;;;;;;72.40;6.67;;;27.60;1.00;;;;;;5102410;28;20179;-81
2023/07/17 12:45:44;;;;;;;70.40;7.33;;;27.50;1.00;;;;;;5101944;28;20160;-82
2023/07/17 12:48:10;;;;;;;71.07;7.03;;;27.60;1.00;;;;;;5101426;28;20184;-81
2023/07/17 12:50:36;;;;;;;74.70;6.90;;;27.90;1.00;;;;;;5101353;28;20179;-80
2023/07/17 12:53:03;;;;;;;70.33;5.40;;;28.30;1.00;;;;;;5100400;28;20411;-81
2023/07/17 12:55:28;;;;;;;72.20;6.63;;;28.50;1.00;;;;;;5102952;28;20435;-81